Silverton, Colorado
Current Conditions -  °F | °C
As of 9:35 PM on Friday 24 Oct 2014 (Local Time) from KTEX Reporting Station
Clear Clear  
Wind Chill: 44°   Ceiling: Unl
Heat Index: 47°   Visibility: 10mi
Dew Point: 28°   Wind: 7mph
Humidity: 46%   Direction: 110°ESE
Pressure: 30.52"   Gusts: NA
Location:  37.81°N, 107.66°W
Report Text: KTEX 250335Z AUTO 11006KT 10SM CLR 09/M02 A3052 RMK AO2 T00861025
Loading
Personal Weather Stations






























Interactive Weather Map
Tropical Storm Tracking
New forecast layout! Learn more

10-Day Weather Forecast

Advertisements
Track Severe Weather on mobile